createdAt,value
2019-04-07T00:02:20.963Z,84.87
2019-04-07T00:04:49.103Z,79.13
2019-04-07T00:07:17.307Z,74.80
2019-04-07T00:09:45.428Z,71.20
2019-04-07T00:12:13.799Z,83.93
2019-04-07T00:14:42.486Z,82.50
2019-04-07T00:17:10.723Z,72.23
2019-04-07T00:19:38.943Z,72.97
2019-04-07T00:22:07.063Z,78.83
2019-04-07T00:24:35.287Z,71.53
2019-04-07T00:27:04.232Z,78.03
2019-04-07T00:29:33.284Z,74.40
2019-04-07T00:32:01.437Z,93.20
2019-04-07T00:34:29.602Z,75.90
2019-04-07T00:36:57.736Z,85.73
2019-04-07T00:39:25.969Z,73.20
2019-04-07T00:41:54.098Z,74.65
2019-04-07T00:44:22.451Z,68.65
2019-04-07T00:46:51.000Z,70.27
2019-04-07T00:49:19.337Z,76.30
2019-04-07T00:51:48.503Z,73.17
2019-04-07T00:54:17.232Z,67.33
2019-04-07T00:56:45.534Z,72.17
2019-04-07T00:59:14.321Z,72.97
2019-04-07T01:01:42.634Z,77.40
2019-04-07T01:04:11.146Z,70.97
2019-04-07T01:06:39.521Z,76.17
2019-04-07T01:09:09.586Z,77.83
2019-04-07T01:11:38.352Z,76.83
2019-04-07T01:14:07.289Z,68.37
2019-04-07T01:16:36.236Z,69.50
2019-04-07T01:19:04.627Z,73.47
2019-04-07T01:21:33.096Z,79.95
2019-04-07T01:24:01.307Z,76.07
2019-04-07T01:26:29.426Z,79.92
2019-04-07T01:28:58.140Z,76.43
2019-04-07T01:31:26.351Z,81.13
2019-04-07T01:33:54.510Z,76.93
2019-04-07T01:36:22.712Z,73.37
2019-04-07T01:38:51.158Z,75.13
2019-04-07T01:41:32.982Z,78.70
2019-04-07T01:46:56.991Z,92.43
2019-04-07T01:49:30.200Z,76.70
2019-04-07T01:52:02.988Z,77.67
2019-04-07T01:54:45.100Z,82.60
2019-04-07T01:57:18.433Z,74.53
2019-04-07T01:59:57.353Z,75.33
2019-04-07T02:02:45.518Z,83.63
2019-04-07T02:05:23.967Z,68.27
2019-04-07T02:08:00.099Z,80.43
2019-04-07T02:10:45.017Z,76.90
2019-04-07T02:13:23.990Z,84.00
2019-04-07T02:15:56.911Z,80.07
2019-04-07T02:18:31.237Z,80.15
2019-04-07T02:21:04.360Z,80.97
2019-04-07T02:23:50.955Z,78.60
2019-04-07T02:26:26.803Z,81.90
2019-04-07T02:29:02.818Z,79.60
2019-04-07T02:31:35.974Z,92.25
2019-04-07T02:34:08.642Z,77.73
2019-04-07T02:36:44.502Z,90.53
2019-04-07T02:39:18.263Z,81.70
2019-04-07T02:41:57.255Z,86.55
2019-04-07T02:44:37.030Z,81.75
2019-04-07T02:47:09.860Z,83.97
2019-04-07T02:49:39.831Z,88.95
2019-04-07T02:52:09.632Z,78.20
2019-04-07T02:54:40.060Z,85.07
2019-04-07T02:57:10.061Z,83.40
2019-04-07T02:59:56.222Z,85.93
2019-04-07T03:02:27.112Z,80.00
2019-04-07T03:04:57.021Z,87.40
2019-04-07T03:07:29.825Z,86.20
2019-04-07T03:10:05.335Z,89.53
2019-04-07T03:12:37.848Z,84.67
2019-04-07T03:15:07.726Z,83.47
2019-04-07T03:17:43.667Z,89.57
2019-04-07T03:20:19.458Z,90.50
2019-04-07T03:23:05.595Z,88.47
2019-04-07T03:25:38.664Z,89.13
2019-04-07T03:28:14.583Z,88.63
2019-04-07T03:30:51.889Z,87.00
2019-04-07T03:33:40.633Z,92.42
2019-04-07T03:36:11.669Z,86.60
2019-04-07T03:38:50.322Z,87.30
2019-04-07T03:41:23.886Z,84.00
2019-04-07T03:43:53.991Z,83.87
2019-04-07T03:46:30.593Z,86.17
2019-04-07T03:49:13.454Z,88.80
2019-04-07T03:51:55.960Z,100.93
2019-04-07T03:54:42.095Z,89.40
2019-04-07T03:57:27.109Z,86.47
2019-04-07T04:00:14.242Z,97.60
2019-04-07T04:03:00.328Z,96.22
2019-04-07T04:05:30.306Z,82.00
2019-04-07T04:08:07.330Z,91.47
2019-04-07T04:10:46.116Z,91.77
2019-04-07T04:13:19.983Z,90.63
2019-04-07T04:15:53.230Z,91.47
2019-04-07T04:18:21.427Z,93.73
2019-04-07T04:20:49.553Z,86.77
2019-04-07T04:23:17.860Z,88.97
2019-04-07T04:25:47.070Z,91.43
2019-04-07T04:28:16.271Z,96.82
2019-04-07T04:30:44.646Z,89.33
2019-04-07T04:33:12.780Z,96.12
2019-04-07T04:35:41.025Z,98.17
2019-04-07T04:38:10.272Z,89.17
2019-04-07T04:40:39.471Z,93.87
2019-04-07T04:43:07.809Z,89.73
2019-04-07T04:45:36.319Z,94.87
2019-04-07T04:48:04.730Z,92.93
2019-04-07T04:50:32.837Z,98.27
2019-04-07T04:53:01.959Z,89.13
2019-04-07T04:55:30.466Z,88.50
2019-04-07T04:57:58.646Z,105.50
2019-04-07T05:00:26.792Z,98.20
2019-04-07T05:02:54.947Z,100.10
2019-04-07T05:05:23.231Z,97.80
2019-04-07T05:07:59.264Z,93.78
2019-04-07T05:10:21.550Z,82.62
2019-04-07T05:12:50.376Z,100.70
2019-04-07T05:15:18.646Z,92.00
2019-04-07T05:17:47.134Z,92.47
2019-04-07T05:20:16.168Z,91.57
2019-04-07T05:22:44.534Z,93.47
2019-04-07T05:25:13.085Z,91.53
2019-04-07T05:27:41.604Z,91.47
2019-04-07T05:30:10.191Z,82.87
2019-04-07T05:32:38.887Z,85.13
2019-04-07T05:35:07.860Z,85.85
2019-04-07T05:37:36.429Z,85.20
2019-04-07T05:40:04.842Z,84.20
2019-04-07T05:42:32.995Z,90.23
2019-04-07T05:45:01.335Z,88.17
2019-04-07T05:47:29.882Z,75.17
2019-04-07T05:49:59.603Z,80.87
2019-04-07T05:52:28.222Z,82.07
2019-04-07T05:54:56.375Z,86.17
2019-04-07T05:57:25.242Z,92.02
2019-04-07T05:59:53.735Z,81.23
2019-04-07T06:02:22.300Z,93.87
2019-04-07T06:04:51.272Z,79.73
2019-04-07T06:07:20.226Z,91.93
2019-04-07T06:09:51.924Z,90.72
2019-04-07T06:12:18.281Z,94.67
2019-04-07T06:14:47.582Z,92.55
2019-04-07T06:17:16.274Z,84.63
2019-04-07T06:19:44.502Z,88.23
2019-04-07T06:22:12.660Z,89.03
2019-04-07T06:24:41.588Z,93.33
2019-04-07T06:27:09.809Z,78.23
2019-04-07T06:29:37.983Z,83.23
2019-04-07T06:32:09.241Z,88.77
2019-04-07T06:34:39.771Z,81.90
2019-04-07T06:37:06.769Z,88.13
2019-04-07T06:39:35.268Z,79.70
2019-04-07T06:42:06.093Z,76.07
2019-04-07T06:44:34.465Z,75.87
2019-04-07T06:47:10.988Z,78.47
2019-04-07T06:49:46.042Z,78.77
2019-04-07T06:52:15.303Z,72.45
2019-04-07T06:54:55.698Z,72.23
2019-04-07T06:57:38.946Z,73.77
2019-04-07T07:00:10.223Z,67.03
2019-04-07T07:02:46.149Z,71.73
2019-04-07T07:05:16.376Z,71.27
2019-04-07T07:07:48.320Z,71.30
2019-04-07T07:10:38.975Z,71.43
2019-04-07T07:13:28.760Z,81.53
2019-04-07T07:15:58.550Z,72.30
2019-04-07T07:18:43.684Z,182.33
2019-04-07T07:21:14.400Z,65.33
2019-04-07T07:23:47.093Z,59.23
2019-04-07T07:26:14.072Z,59.80
2019-04-07T07:28:43.960Z,73.43
2019-04-07T07:31:12.092Z,63.63
2019-04-07T07:33:42.358Z,63.00
2019-04-07T07:36:10.441Z,68.30
2019-04-07T07:38:39.647Z,74.30
2019-04-07T07:41:08.835Z,60.03
2019-04-07T07:43:37.140Z,67.17
2019-04-07T07:46:05.604Z,58.47
2019-04-07T07:48:33.999Z,60.23
2019-04-07T07:51:02.429Z,64.77
2019-04-07T07:53:30.762Z,90.90
2019-04-07T07:55:58.891Z,71.60
2019-04-07T07:58:29.384Z,85.47
2019-04-07T08:00:59.565Z,64.83
2019-04-07T08:03:27.264Z,62.10
2019-04-07T08:05:55.455Z,67.87
2019-04-07T08:08:23.671Z,60.33
2019-04-07T08:10:51.811Z,55.77
2019-04-07T08:13:20.138Z,58.23
2019-04-07T08:15:49.316Z,48.57
2019-04-07T08:18:20.442Z,61.53
2019-04-07T08:20:47.953Z,51.63
2019-04-07T08:23:16.072Z,75.37
2019-04-07T08:25:44.288Z,51.25
2019-04-07T08:28:12.520Z,53.57
2019-04-07T08:30:43.904Z,48.33
2019-04-07T08:33:10.819Z,45.00
2019-04-07T08:35:39.769Z,44.53
2019-04-07T08:38:08.809Z,44.83
2019-04-07T08:40:38.925Z,50.00
2019-04-07T08:43:07.219Z,39.10
2019-04-07T08:45:35.941Z,47.43
2019-04-07T08:48:04.245Z,44.03
2019-04-07T08:50:33.129Z,38.33
2019-04-07T08:53:02.094Z,45.35
2019-04-07T08:55:30.931Z,43.17
2019-04-07T08:58:02.224Z,48.05
2019-04-07T09:00:31.603Z,30.77
2019-04-07T09:03:04.799Z,35.17
2019-04-07T09:05:31.187Z,31.40
2019-04-07T09:08:03.539Z,32.37
2019-04-07T09:10:35.604Z,35.03
2019-04-07T09:13:07.757Z,30.73
2019-04-07T09:15:45.491Z,31.23
2019-04-07T09:18:17.961Z,32.93
2019-04-07T09:20:50.647Z,40.60
2019-04-07T09:23:26.401Z,23.67
2019-04-07T09:26:12.046Z,22.07
2019-04-07T09:29:00.759Z,22.40
2019-04-07T09:31:33.474Z,21.62
2019-04-07T09:34:18.199Z,20.27
2019-04-07T09:36:49.917Z,21.87
2019-04-07T09:39:24.766Z,17.67
2019-04-07T09:41:57.311Z,16.70
2019-04-07T09:44:27.770Z,16.37
2019-04-07T09:46:58.560Z,18.15
2019-04-07T09:49:28.523Z,17.17
2019-04-07T09:51:58.398Z,15.28
2019-04-07T09:54:28.167Z,15.60
2019-04-07T09:57:14.476Z,16.37
2019-04-07T09:59:54.511Z,15.40
2019-04-07T10:02:34.486Z,14.47
2019-04-07T10:05:21.119Z,14.47
2019-04-07T10:08:11.407Z,14.93
2019-04-07T10:10:45.275Z,14.03
2019-04-07T10:13:21.550Z,17.27
2019-04-07T10:15:51.438Z,19.13
2019-04-07T10:18:27.036Z,27.35
2019-04-07T10:20:57.657Z,15.53
2019-04-07T10:23:36.625Z,15.72
2019-04-07T10:26:07.260Z,15.93
2019-04-07T10:28:41.849Z,18.70
2019-04-07T10:31:11.339Z,16.27
2019-04-07T10:33:51.170Z,15.27
2019-04-07T10:36:22.800Z,15.10
2019-04-07T10:38:52.824Z,15.43
2019-04-07T10:41:39.319Z,14.33
2019-04-07T10:44:26.046Z,15.57
2019-04-07T10:47:01.768Z,15.50
2019-04-07T10:49:58.541Z,15.63
2019-04-07T10:52:37.640Z,13.05
2019-04-07T10:55:07.619Z,14.85
2019-04-07T10:57:53.844Z,14.18
2019-04-07T11:00:35.579Z,14.80
2019-04-07T11:03:06.393Z,14.05
2019-04-07T11:05:36.321Z,12.70
2019-04-07T11:08:08.721Z,12.98
2019-04-07T11:10:41.948Z,13.30
2019-04-07T11:13:27.637Z,14.10
2019-04-07T11:16:00.628Z,12.73
2019-04-07T11:18:33.749Z,11.75
2019-04-07T11:21:20.139Z,12.70
2019-04-07T11:24:06.519Z,13.15
2019-04-07T11:26:39.720Z,12.30
2019-04-07T11:29:13.356Z,12.43
2019-04-07T11:31:45.612Z,11.70
2019-04-07T11:34:15.996Z,11.80
2019-04-07T11:36:48.653Z,34.13
2019-04-07T11:39:18.950Z,14.78
2019-04-07T11:41:54.760Z,12.93
2019-04-07T11:44:34.272Z,12.82
2019-04-07T11:47:19.711Z,11.55
2019-04-07T11:49:52.581Z,11.88
2019-04-07T11:52:22.438Z,11.70
2019-04-07T11:55:08.600Z,14.97
2019-04-07T11:57:44.660Z,12.97
2019-04-07T12:00:14.071Z,10.28
2019-04-07T12:02:44.620Z,12.04
2019-04-07T12:05:18.042Z,11.33
2019-04-07T12:07:57.199Z,11.60
2019-04-07T12:10:53.516Z,13.65
2019-04-07T12:13:14.385Z,12.28
2019-04-07T12:15:44.210Z,11.85
2019-04-07T12:18:23.448Z,11.65
2019-04-07T12:20:53.404Z,13.32
2019-04-07T12:23:35.137Z,15.32
2019-04-07T12:26:22.731Z,14.30
2019-04-07T12:28:56.085Z,14.63
2019-04-07T12:31:26.090Z,11.85
2019-04-07T12:33:58.532Z,11.63
2019-04-07T12:36:32.072Z,11.57
2019-04-07T12:39:12.216Z,13.40
2019-04-07T12:41:45.399Z,11.35
2019-04-07T12:44:15.855Z,12.28
2019-04-07T12:46:51.790Z,16.15
2019-04-07T12:49:42.203Z,12.53
2019-04-07T12:52:09.780Z,12.20
2019-04-07T12:54:46.027Z,11.70
2019-04-07T12:57:16.891Z,12.90
2019-04-07T13:00:02.144Z,11.95
2019-04-07T13:02:41.552Z,13.95
2019-04-07T13:05:12.116Z,25.30
2019-04-07T13:07:44.463Z,14.90
2019-04-07T13:10:23.639Z,15.25
2019-04-07T13:12:59.458Z,14.38
2019-04-07T13:15:38.928Z,13.28
2019-04-07T13:18:14.761Z,18.73
2019-04-07T13:20:53.672Z,13.00
2019-04-07T13:23:26.631Z,11.30
2019-04-07T13:25:56.800Z,12.28
2019-04-07T13:28:30.538Z,11.60
2019-04-07T13:31:06.445Z,12.10
2019-04-07T13:33:45.723Z,14.10
2019-04-07T13:36:16.015Z,11.50
2019-04-07T13:38:55.753Z,12.18
2019-04-07T13:41:47.195Z,13.08
2019-04-07T13:44:16.146Z,12.67
2019-04-07T13:46:59.170Z,13.90
2019-04-07T13:49:45.830Z,20.90
2019-04-07T13:52:23.060Z,13.83
2019-04-07T13:55:09.391Z,14.75
2019-04-07T13:57:42.798Z,15.53
2019-04-07T14:00:29.390Z,13.53
2019-04-07T14:03:05.863Z,14.80
2019-04-07T14:05:38.957Z,16.47
2019-04-07T14:08:08.070Z,14.55
2019-04-07T14:10:40.733Z,13.37
2019-04-07T14:13:17.152Z,13.75
2019-04-07T14:15:47.407Z,13.65
2019-04-07T14:18:17.313Z,13.13
2019-04-07T14:20:49.987Z,14.28
2019-04-07T14:23:35.360Z,34.73
2019-04-07T14:26:08.236Z,14.68
2019-04-07T14:28:38.011Z,16.20
2019-04-07T14:31:23.877Z,14.50
2019-04-07T14:33:57.328Z,14.00
2019-04-07T14:36:33.218Z,15.00
2019-04-07T14:39:19.076Z,19.77
2019-04-07T14:42:06.710Z,20.70
2019-04-07T14:44:35.828Z,26.57
2019-04-07T14:47:17.598Z,18.03
2019-04-07T14:50:03.755Z,21.17
2019-04-07T14:52:37.192Z,15.38
2019-04-07T14:55:24.798Z,15.43
2019-04-07T14:58:04.513Z,19.48
2019-04-07T15:00:50.886Z,16.27
2019-04-07T15:03:20.258Z,15.70
2019-04-07T15:05:50.645Z,15.13
2019-04-07T15:08:38.093Z,22.93
2019-04-07T15:11:08.770Z,19.37
2019-04-07T15:13:37.516Z,23.67
2019-04-07T15:16:05.844Z,15.03
2019-04-07T15:18:34.045Z,18.17
2019-04-07T15:21:02.193Z,14.73
2019-04-07T15:23:32.272Z,12.95
2019-04-07T15:26:00.502Z,29.23
2019-04-07T15:28:30.658Z,14.93
2019-04-07T15:30:58.917Z,16.62
2019-04-07T15:33:29.455Z,26.68
2019-04-07T15:35:57.726Z,15.17
2019-04-07T15:38:27.202Z,15.20
2019-04-07T15:40:56.214Z,16.02
2019-04-07T15:43:25.912Z,15.95
2019-04-07T15:45:54.646Z,21.37
2019-04-07T15:48:25.847Z,19.57
2019-04-07T15:50:52.906Z,18.90
2019-04-07T15:53:22.035Z,23.62
2019-04-07T15:55:59.248Z,16.17
2019-04-07T15:58:20.484Z,27.60
2019-04-07T16:00:48.732Z,17.17
2019-04-07T16:03:16.996Z,15.38
2019-04-07T16:05:46.495Z,16.17
2019-04-07T16:08:14.801Z,27.80
2019-04-07T16:10:42.921Z,18.57
2019-04-07T16:13:11.512Z,16.30
2019-04-07T16:15:42.793Z,17.02
2019-04-07T16:18:10.504Z,15.08
2019-04-07T16:20:40.374Z,15.15
2019-04-07T16:23:08.689Z,16.52
2019-04-07T16:25:39.243Z,15.35
2019-04-07T16:28:12.551Z,17.20
2019-04-07T16:30:38.220Z,24.13
2019-04-07T16:33:06.459Z,17.32
2019-04-07T16:35:34.699Z,16.07
2019-04-07T16:38:02.996Z,17.00
2019-04-07T16:40:31.822Z,16.00
2019-04-07T16:43:07.656Z,16.12
2019-04-07T16:45:30.429Z,16.70
2019-04-07T16:47:58.871Z,16.87
2019-04-07T16:50:28.254Z,17.03
2019-04-07T16:52:56.411Z,15.77
2019-04-07T16:55:32.638Z,17.40
2019-04-07T16:58:02.049Z,16.85
2019-04-07T17:00:31.213Z,16.60
2019-04-07T17:03:01.324Z,15.93
2019-04-07T17:05:30.225Z,16.17
2019-04-07T17:07:59.433Z,16.73
2019-04-07T17:10:32.329Z,16.73
2019-04-07T17:13:00.453Z,17.87
2019-04-07T17:15:28.329Z,18.73
2019-04-07T17:17:57.006Z,20.83
2019-04-07T17:20:27.859Z,17.53
2019-04-07T17:22:56.766Z,20.13
2019-04-07T17:25:25.581Z,17.47
2019-04-07T17:27:53.811Z,17.23
2019-04-07T17:30:25.313Z,18.07
2019-04-07T17:32:52.540Z,18.80
2019-04-07T17:35:21.588Z,18.67
2019-04-07T17:37:50.616Z,17.67
2019-04-07T17:40:21.390Z,19.03
2019-04-07T17:42:52.780Z,18.40
2019-04-07T17:45:22.490Z,18.73
2019-04-07T17:47:52.936Z,21.55
2019-04-07T17:50:31.962Z,31.42
2019-04-07T17:53:01.747Z,27.60
2019-04-07T17:55:34.253Z,36.37
2019-04-07T17:58:15.771Z,18.20
2019-04-07T18:01:01.757Z,18.27
2019-04-07T18:03:31.760Z,18.83
2019-04-07T18:06:15.658Z,18.97
2019-04-07T18:09:10.387Z,16.17
2019-04-07T18:11:54.539Z,19.67
2019-04-07T18:14:31.245Z,25.80
2019-04-07T18:17:02.315Z,20.17
2019-04-07T18:19:36.102Z,17.87
2019-04-07T18:22:06.282Z,17.90
2019-04-07T18:24:38.749Z,17.57
2019-04-07T18:27:12.468Z,16.87
2019-04-07T18:29:59.535Z,17.27
2019-04-07T18:32:46.751Z,26.20
2019-04-07T18:35:34.727Z,25.80
2019-04-07T18:38:08.782Z,20.60
2019-04-07T18:40:58.335Z,19.63
2019-04-07T18:43:50.732Z,17.30
2019-04-07T18:46:35.753Z,18.83
2019-04-07T18:49:18.056Z,17.70
2019-04-07T18:51:50.693Z,19.67
2019-04-07T18:54:24.758Z,20.03
2019-04-07T18:57:11.899Z,17.97
2019-04-07T18:59:42.564Z,21.23
2019-04-07T19:02:16.557Z,20.80
2019-04-07T19:05:00.208Z,20.10
2019-04-07T19:07:28.588Z,19.00
2019-04-07T19:10:21.218Z,20.23
2019-04-07T19:13:01.953Z,22.17
2019-04-07T19:15:42.144Z,25.00
2019-04-07T19:18:11.932Z,46.48
2019-04-07T19:20:58.933Z,24.67
2019-04-07T19:23:32.683Z,23.47
2019-04-07T19:26:18.093Z,19.73
2019-04-07T19:29:04.251Z,19.43
2019-04-07T19:31:42.301Z,19.70
2019-04-07T19:34:29.885Z,21.90
2019-04-07T19:37:10.199Z,18.50
2019-04-07T19:39:59.244Z,26.00
2019-04-07T19:42:46.946Z,28.60
2019-04-07T19:45:15.521Z,28.13
2019-04-07T19:47:54.897Z,21.10
2019-04-07T19:50:40.385Z,28.47
2019-04-07T19:53:13.276Z,27.93
2019-04-07T19:55:59.560Z,23.00
2019-04-07T19:58:42.684Z,30.90
2019-04-07T20:01:15.121Z,28.83
2019-04-07T20:03:56.994Z,25.53
2019-04-07T20:06:44.089Z,24.77
2019-04-07T20:09:30.036Z,24.43
2019-04-07T20:12:01.524Z,31.93
2019-04-07T20:14:51.983Z,39.10
2019-04-07T20:17:31.084Z,39.90
2019-04-07T20:20:11.244Z,38.30
2019-04-07T20:22:41.779Z,25.53
2019-04-07T20:25:20.541Z,27.37
2019-04-07T20:27:51.238Z,25.23
2019-04-07T20:30:21.317Z,26.00
2019-04-07T20:32:51.321Z,26.70
2019-04-07T20:35:25.914Z,25.13
2019-04-07T20:38:01.936Z,25.37
2019-04-07T20:40:38.878Z,26.83
2019-04-07T20:43:23.655Z,27.10
2019-04-07T20:46:08.989Z,29.00
2019-04-07T20:48:54.098Z,26.33
2019-04-07T20:51:24.224Z,25.70
2019-04-07T20:54:09.796Z,26.10
2019-04-07T20:56:57.621Z,30.93
2019-04-07T20:59:51.205Z,33.67
2019-04-07T21:02:35.055Z,26.62
2019-04-07T21:05:23.972Z,32.47
2019-04-07T21:10:41.456Z,30.97
2019-04-07T21:13:16.731Z,26.33
2019-04-07T21:15:46.630Z,29.07
2019-04-07T21:18:34.010Z,32.17
2019-04-07T21:23:46.201Z,30.13
2019-04-07T21:26:24.419Z,29.00
2019-04-07T21:29:09.030Z,30.10
2019-04-07T21:31:40.912Z,31.80
2019-04-07T21:34:16.508Z,28.17
2019-04-07T21:36:49.231Z,36.23
2019-04-07T21:39:25.885Z,33.03
2019-04-07T21:41:56.956Z,29.70
2019-04-07T21:44:38.909Z,31.73
2019-04-07T21:47:17.384Z,27.83
2019-04-07T21:50:07.498Z,35.40
2019-04-07T21:52:43.117Z,35.30
2019-04-07T21:55:25.380Z,28.90
2019-04-07T21:58:05.140Z,32.70
2019-04-07T22:00:51.183Z,34.13
2019-04-07T22:03:22.586Z,31.17
2019-04-07T22:05:54.469Z,34.23
2019-04-07T22:08:30.524Z,34.07
2019-04-07T22:10:59.417Z,30.73
2019-04-07T22:13:28.552Z,33.30
2019-04-07T22:16:01.484Z,32.07
2019-04-07T22:18:26.882Z,38.08
2019-04-07T22:20:56.888Z,28.17
2019-04-07T22:23:25.135Z,31.40
2019-04-07T22:25:54.062Z,32.87
2019-04-07T22:28:22.757Z,32.10
2019-04-07T22:30:52.980Z,30.45
2019-04-07T22:33:25.225Z,30.27
2019-04-07T22:35:51.295Z,31.73
2019-04-07T22:38:21.974Z,34.30
2019-04-07T22:40:49.985Z,33.83
2019-04-07T22:43:18.878Z,32.27
2019-04-07T22:45:59.145Z,36.73
2019-04-07T22:48:22.805Z,35.23
2019-04-07T22:50:49.603Z,33.67
2019-04-07T22:53:22.586Z,34.27
2019-04-07T22:55:48.614Z,38.07
2019-04-07T22:58:16.882Z,36.30
2019-04-07T23:00:44.983Z,34.60
2019-04-07T23:03:13.575Z,29.92
2019-04-07T23:05:41.694Z,32.67
2019-04-07T23:08:10.392Z,33.33
2019-04-07T23:10:38.565Z,35.93
2019-04-07T23:13:08.234Z,39.73
2019-04-07T23:15:43.523Z,39.43
2019-04-07T23:18:07.323Z,34.33
2019-04-07T23:20:35.597Z,34.43
2019-04-07T23:23:04.698Z,34.63
2019-04-07T23:25:32.886Z,39.33
2019-04-07T23:28:00.996Z,31.23
2019-04-07T23:30:31.253Z,37.80
2019-04-07T23:32:59.596Z,35.70
2019-04-07T23:35:28.686Z,30.97
2019-04-07T23:37:57.444Z,37.27
2019-04-07T23:40:25.918Z,35.50
2019-04-07T23:42:55.095Z,42.53
2019-04-07T23:45:23.324Z,32.93
2019-04-07T23:47:51.448Z,39.87
2019-04-07T23:50:20.761Z,38.07
2019-04-07T23:52:49.686Z,36.40
2019-04-07T23:55:20.387Z,35.10
2019-04-07T23:57:48.779Z,34.00
